Ridgewood, New Jersey
Current Conditions -  °F | °C
As of 8:51 AM on Wednesday 28 Jan 2015 (Local Time) from KTEB Reporting Station
Few Clouds Few Clouds  
Wind Chill:   Ceiling: Unl
Heat Index: 20°   Visibility: 10mi
Dew Point:   Wind: 12mph
Humidity: 42%   Direction: 330°NNW
Pressure: 30.04"   Gusts: 20mph
Location:  40.98°N, 74.11°W
Report Text: KTEB 281351Z 33010G17KT 10SM FEW100 M07/M18 A3004 RMK AO2 SLP171 T10671178
Loading
Personal Weather Stations






























Interactive Weather Map New forecast layout! Learn more

10-Day Weather Forecast

Advertisements
Track Severe Weather on mobile